Time;durP1;ratioP1;P1;durP2;ratioP2;P2;SDS_P1;SDS_P2;PMS_P1;PMS_P2;Temp;Humidity;BMP_temperature;BMP_pressure;BME280_temperature;BME280_humidity;BME280_pressure;Samples;Min_cycle;Max_cycle;Signal;HPM_P1;HPM_P2
2023/03/13 00:00:32;;;;;;;25.20;13.35;;;;;;;;;;5070684;28;20043;-65
2023/03/13 00:02:58;;;;;;;24.92;13.75;;;;;;;;;;5070317;28;20513;-63
2023/03/13 00:05:24;;;;;;;25.10;13.93;;;;;;;;;;5071570;28;20099;-64
2023/03/13 00:07:50;;;;;;;23.10;12.68;;;;;;;;;;5071502;28;20476;-65
2023/03/13 00:10:16;;;;;;;24.70;13.63;;;;;;;;;;5071399;28;20023;-63
2023/03/13 00:12:42;;;;;;;27.60;13.35;;;;;;;;;;5070239;28;20170;-65
2023/03/13 00:15:08;;;;;;;25.05;13.15;;;;;;;;;;5069839;28;20123;-63
2023/03/13 00:17:34;;;;;;;33.35;15.63;;;;;;;;;;5071511;28;20021;-62
2023/03/13 00:20:00;;;;;;;26.35;14.02;;;;;;;;;;5071678;28;20035;-61
2023/03/13 00:22:26;;;;;;;26.90;13.90;;;;;;;;;;5075360;28;20024;-63
2023/03/13 00:24:52;;;;;;;27.52;14.30;;;;;;;;;;5075372;28;20025;-61
2023/03/13 00:27:18;;;;;;;23.27;15.05;;;;;;;;;;5064907;28;20025;-64
2023/03/13 00:29:44;;;;;;;26.38;14.48;;;;;;;;;;5064696;22;20045;-67
2023/03/13 00:32:10;;;;;;;29.27;13.90;;;;;;;;;;5056248;28;20468;-66
2023/03/13 00:34:36;;;;;;;27.02;13.20;;;;;;;;;;5072664;28;20107;-66
2023/03/13 00:37:02;;;;;;;24.13;13.32;;;;;;;;;;5073348;28;20107;-67
2023/03/13 00:39:28;;;;;;;28.30;14.23;;;;;;;;;;5072862;28;20111;-65
2023/03/13 00:41:54;;;;;;;26.58;13.43;;;;;;;;;;5073544;28;20017;-68
2023/03/13 00:44:20;;;;;;;25.65;13.50;;;;;;;;;;5073192;28;20020;-68
2023/03/13 00:46:46;;;;;;;27.80;14.88;;;;;;;;;;5073775;28;20033;-68
2023/03/13 00:49:12;;;;;;;28.45;15.75;;;;;;;;;;5074186;28;20040;-68
2023/03/13 00:51:38;;;;;;;28.45;16.27;;;;;;;;;;5056226;28;20029;-67
2023/03/13 00:54:04;;;;;;;27.58;18.48;;;;;;;;;;5073836;28;20078;-66
2023/03/13 00:56:30;;;;;;;27.33;21.23;;;;;;;;;;5056472;28;20135;-64
2023/03/13 00:58:56;;;;;;;27.10;22.70;;;;;;;;;;5074303;28;20497;-66
2023/03/13 01:01:24;;;;;;;38.90;35.00;;;;;;;;;;5056224;28;20039;-66
2023/03/13 01:03:52;;;;;;;41.70;38.10;;;;;;;;;;5073937;28;20056;-66
2023/03/13 01:06:19;;;;;;;43.90;38.00;;;;;;;;;;5073913;28;20053;-66
2023/03/13 01:08:46;;;;;;;40.73;37.03;;;;;;;;;;5055921;28;20035;-65
2023/03/13 01:11:19;;;;;;;42.35;38.20;;;;;;;;;;5073827;28;20306;-65
2023/03/13 01:13:45;;;;;;;43.95;39.25;;;;;;;;;;5055695;28;20024;-66
2023/03/13 01:16:13;;;;;;;44.75;40.80;;;;;;;;;;5073825;28;20024;-65
2023/03/13 01:18:40;;;;;;;54.20;49.80;;;;;;;;;;5073856;28;20028;-64
2023/03/13 01:21:06;;;;;;;57.17;52.42;;;;;;;;;;5073816;28;20372;-65
2023/03/13 01:23:32;;;;;;;59.33;54.33;;;;;;;;;;5055800;28;20028;-65
2023/03/13 01:25:58;;;;;;;59.58;54.10;;;;;;;;;;5074085;28;20035;-65
2023/03/13 01:28:25;;;;;;;59.67;54.28;;;;;;;;;;5055850;28;20023;-65
2023/03/13 01:30:51;;;;;;;58.10;53.65;;;;;;;;;;5055660;28;20032;-62
2023/03/13 01:33:17;;;;;;;63.05;57.50;;;;;;;;;;5072987;28;20099;-65
2023/03/13 01:35:43;;;;;;;62.38;57.40;;;;;;;;;;5073794;28;20083;-64
2023/03/13 01:38:09;;;;;;;66.95;61.33;;;;;;;;;;5056429;28;20027;-64
2023/03/13 01:40:39;;;;;;;62.45;56.78;;;;;;;;;;5073725;28;20492;-64
2023/03/13 01:43:12;;;;;;;60.85;55.28;;;;;;;;;;5055752;28;20032;-65
2023/03/13 01:45:53;;;;;;;62.70;56.97;;;;;;;;;;5074670;28;20434;-65
2023/03/13 01:48:25;;;;;;;60.10;54.40;;;;;;;;;;5075804;28;20036;-64
2023/03/13 01:50:52;;;;;;;55.22;50.88;;;;;;;;;;5074034;28;20389;-63
2023/03/13 01:53:18;;;;;;;55.67;50.78;;;;;;;;;;5073740;28;20031;-64
2023/03/13 01:55:44;;;;;;;57.03;51.45;;;;;;;;;;5073174;28;20021;-64
2023/03/13 01:58:10;;;;;;;53.90;48.60;;;;;;;;;;5055131;28;20029;-64
2023/03/13 02:00:36;;;;;;;53.65;48.20;;;;;;;;;;5073270;28;20092;-63
2023/03/13 02:03:06;;;;;;;57.53;51.85;;;;;;;;;;5054536;28;20112;-65
2023/03/13 02:05:32;;;;;;;55.53;49.90;;;;;;;;;;5072922;28;20558;-64
2023/03/13 02:07:58;;;;;;;54.08;49.40;;;;;;;;;;5073498;28;20020;-63
2023/03/13 02:10:25;;;;;;;53.25;48.72;;;;;;;;;;5056218;28;20016;-63
2023/03/13 02:12:51;;;;;;;56.03;50.30;;;;;;;;;;5057629;28;20029;-63
2023/03/13 02:15:19;;;;;;;52.70;47.70;;;;;;;;;;5057567;28;20020;-64
2023/03/13 02:17:46;;;;;;;51.47;46.35;;;;;;;;;;5075979;28;20036;-65
2023/03/13 02:20:13;;;;;;;51.17;46.05;;;;;;;;;;5075293;28;20047;-66
2023/03/13 02:22:39;;;;;;;52.08;47.22;;;;;;;;;;5074952;28;20039;-64
2023/03/13 02:25:08;;;;;;;47.97;43.70;;;;;;;;;;5075241;28;20025;-65
2023/03/13 02:27:34;;;;;;;47.80;43.40;;;;;;;;;;5075741;28;20056;-64
2023/03/13 02:30:00;;;;;;;52.92;43.60;;;;;;;;;;5074921;28;20568;-63
2023/03/13 02:32:27;;;;;;;49.63;45.08;;;;;;;;;;5075943;28;20021;-64
2023/03/13 02:34:56;;;;;;;51.65;46.95;;;;;;;;;;5074624;28;20059;-64
2023/03/13 02:37:23;;;;;;;52.13;46.65;;;;;;;;;;5055109;28;20043;-65
2023/03/13 02:39:50;;;;;;;53.92;49.28;;;;;;;;;;5055638;28;20436;-65
2023/03/13 02:42:18;;;;;;;56.30;51.50;;;;;;;;;;5072036;28;20024;-64
2023/03/13 02:44:45;;;;;;;55.70;49.83;;;;;;;;;;5070896;28;20078;-65
2023/03/13 02:47:11;;;;;;;56.30;51.10;;;;;;;;;;5054120;28;20507;-65
2023/03/13 02:49:37;;;;;;;57.58;51.17;;;;;;;;;;5071781;28;20056;-64
2023/03/13 02:52:19;;;;;;;55.03;49.67;;;;;;;;;;5072003;28;20025;-66
2023/03/13 02:54:46;;;;;;;53.65;48.13;;;;;;;;;;5071615;28;20407;-65
2023/03/13 02:57:13;;;;;;;49.30;44.65;;;;;;;;;;5071890;28;20032;-63
2023/03/13 02:59:39;;;;;;;52.05;47.22;;;;;;;;;;5053694;28;20107;-64
2023/03/13 03:02:05;;;;;;;50.15;45.75;;;;;;;;;;5071643;28;20033;-63
2023/03/13 03:04:31;;;;;;;48.00;43.70;;;;;;;;;;5071332;28;20024;-62
2023/03/13 03:06:57;;;;;;;50.10;45.83;;;;;;;;;;5071636;28;20142;-63
2023/03/13 03:09:23;;;;;;;52.28;47.72;;;;;;;;;;5071285;28;20437;-64
2023/03/13 03:11:49;;;;;;;51.28;46.80;;;;;;;;;;5053737;28;20071;-64
2023/03/13 03:14:15;;;;;;;56.53;51.90;;;;;;;;;;5053264;28;20079;-64
2023/03/13 03:16:41;;;;;;;62.20;56.95;;;;;;;;;;5053309;28;20437;-63
2023/03/13 03:19:07;;;;;;;60.53;55.78;;;;;;;;;;5071196;28;20063;-62
2023/03/13 03:21:33;;;;;;;58.45;53.90;;;;;;;;;;5070934;28;20054;-63
2023/03/13 03:24:00;;;;;;;62.08;56.97;;;;;;;;;;5070901;28;20028;-62
2023/03/13 03:26:26;;;;;;;61.83;56.97;;;;;;;;;;5071116;28;20063;-63
2023/03/13 03:28:51;;;;;;;60.90;55.85;;;;;;;;;;5070853;28;20024;-62
2023/03/13 03:31:18;;;;;;;66.43;60.90;;;;;;;;;;5070893;28;20093;-62
2023/03/13 03:33:44;;;;;;;66.03;60.67;;;;;;;;;;5070826;28;20032;-63
2023/03/13 03:36:14;;;;;;;63.40;58.50;;;;;;;;;;5070886;28;20029;-62
2023/03/13 03:38:41;;;;;;;63.95;59.05;;;;;;;;;;5053037;28;20047;-60
2023/03/13 03:41:07;;;;;;;63.90;58.33;;;;;;;;;;5070810;28;20028;-62
2023/03/13 03:43:34;;;;;;;60.10;54.83;;;;;;;;;;5052666;28;20123;-61
2023/03/13 03:46:00;;;;;;;61.67;57.03;;;;;;;;;;5070952;28;20032;-61
2023/03/13 03:48:26;;;;;;;63.67;58.25;;;;;;;;;;5070547;28;20046;-60
2023/03/13 03:50:52;;;;;;;65.32;60.17;;;;;;;;;;5052474;28;20024;-61
2023/03/13 03:53:18;;;;;;;65.60;60.35;;;;;;;;;;5070323;28;20024;-60
2023/03/13 03:55:44;;;;;;;61.58;56.70;;;;;;;;;;5070316;28;20031;-59
2023/03/13 03:58:10;;;;;;;63.92;58.90;;;;;;;;;;5052478;28;20025;-60
2023/03/13 04:00:36;;;;;;;64.82;59.75;;;;;;;;;;5070367;28;20021;-60
2023/03/13 04:03:02;;;;;;;64.10;59.22;;;;;;;;;;5065189;28;20035;-60
2023/03/13 04:05:29;;;;;;;63.05;58.13;;;;;;;;;;5060528;28;20016;-58
2023/03/13 04:07:55;;;;;;;64.00;58.60;;;;;;;;;;5070334;28;20393;-58
2023/03/13 04:10:21;;;;;;;61.50;56.65;;;;;;;;;;5070360;28;20040;-57
2023/03/13 04:12:47;;;;;;;63.40;58.05;;;;;;;;;;5070187;28;20193;-61
2023/03/13 04:15:13;;;;;;;61.65;57.17;;;;;;;;;;5069931;28;20096;-62
2023/03/13 04:17:39;;;;;;;65.47;60.20;;;;;;;;;;5070406;28;20042;-60
2023/03/13 04:20:06;;;;;;;65.25;60.03;;;;;;;;;;5070065;28;20147;-60
2023/03/13 04:22:32;;;;;;;67.50;62.00;;;;;;;;;;5069990;28;20473;-60
2023/03/13 04:24:58;;;;;;;66.80;61.20;;;;;;;;;;5070043;28;20029;-63
2023/03/13 04:27:24;;;;;;;67.03;61.47;;;;;;;;;;5070130;28;20036;-58
2023/03/13 04:29:50;;;;;;;66.63;61.45;;;;;;;;;;5069643;28;20489;-59
2023/03/13 04:32:16;;;;;;;66.30;60.80;;;;;;;;;;5069967;28;20046;-58
2023/03/13 04:34:42;;;;;;;65.45;60.13;;;;;;;;;;5069776;28;20476;-59
2023/03/13 04:37:08;;;;;;;65.43;60.45;;;;;;;;;;5069968;28;20024;-58
2023/03/13 04:39:34;;;;;;;61.70;56.92;;;;;;;;;;5069835;28;20059;-57
2023/03/13 04:42:00;;;;;;;64.88;59.47;;;;;;;;;;5070016;28;20020;-61
2023/03/13 04:44:26;;;;;;;64.10;58.80;;;;;;;;;;5069815;28;20067;-59
2023/03/13 04:46:52;;;;;;;64.03;58.20;;;;;;;;;;5051851;28;20107;-58
2023/03/13 04:49:18;;;;;;;60.38;55.25;;;;;;;;;;5069533;28;20054;-62
2023/03/13 04:51:44;;;;;;;59.63;54.92;;;;;;;;;;5070004;28;20187;-59
2023/03/13 04:54:11;;;;;;;60.20;55.33;;;;;;;;;;5070004;28;20052;-62
2023/03/13 04:56:37;;;;;;;59.97;55.03;;;;;;;;;;5069891;28;20063;-61
2023/03/13 04:59:03;;;;;;;59.90;54.75;;;;;;;;;;5069902;28;20364;-61
2023/03/13 05:01:29;;;;;;;59.22;54.63;;;;;;;;;;5051912;28;20025;-62
2023/03/13 05:03:55;;;;;;;59.78;55.20;;;;;;;;;;5051704;28;20033;-58
2023/03/13 05:06:21;;;;;;;58.42;53.83;;;;;;;;;;5069764;28;20032;-62
2023/03/13 05:08:47;;;;;;;59.17;54.20;;;;;;;;;;5072069;28;20175;-62
2023/03/13 05:11:13;;;;;;;57.15;52.60;;;;;;;;;;5073502;28;20510;-61
2023/03/13 05:13:39;;;;;;;59.05;54.15;;;;;;;;;;5055562;28;20016;-60
2023/03/13 05:16:05;;;;;;;58.30;53.33;;;;;;;;;;5073653;28;20108;-61
2023/03/13 05:18:32;;;;;;;58.65;53.78;;;;;;;;;;5073418;28;20056;-62
2023/03/13 05:21:04;;;;;;;57.45;52.63;;;;;;;;;;5055503;28;20032;-61
2023/03/13 05:23:30;;;;;;;59.47;53.75;;;;;;;;;;5073119;28;20028;-62
2023/03/13 05:25:56;;;;;;;59.13;54.17;;;;;;;;;;5055180;28;20408;-61
2023/03/13 05:28:23;;;;;;;60.35;55.25;;;;;;;;;;5073116;28;20495;-62
2023/03/13 05:30:48;;;;;;;59.70;54.58;;;;;;;;;;5054996;28;20036;-58
2023/03/13 05:33:14;;;;;;;54.35;49.63;;;;;;;;;;5072744;28;20016;-61
2023/03/13 05:35:41;;;;;;;55.60;50.88;;;;;;;;;;5073056;28;20036;-61
2023/03/13 05:38:07;;;;;;;55.67;50.95;;;;;;;;;;5073163;28;20112;-60
2023/03/13 05:40:33;;;;;;;56.72;51.90;;;;;;;;;;5071164;28;20048;-59
2023/03/13 05:42:59;;;;;;;57.63;52.47;;;;;;;;;;5068832;28;20103;-61
2023/03/13 05:45:25;;;;;;;58.58;53.38;;;;;;;;;;5057895;28;20024;-61
2023/03/13 05:47:51;;;;;;;57.65;52.35;;;;;;;;;;5072624;28;20485;-59
2023/03/13 05:50:17;;;;;;;59.47;54.40;;;;;;;;;;5043995;28;20041;-61
2023/03/13 05:52:43;;;;;;;58.13;53.08;;;;;;;;;;5052637;28;20354;-61
2023/03/13 05:55:09;;;;;;;56.78;52.10;;;;;;;;;;5052247;28;20017;-63
2023/03/13 05:57:35;;;;;;;58.78;53.75;;;;;;;;;;5052646;28;20025;-62
2023/03/13 06:00:02;;;;;;;60.13;55.10;;;;;;;;;;5054572;28;20035;-63
2023/03/13 06:02:28;;;;;;;62.30;56.58;;;;;;;;;;5069975;28;20028;-63
2023/03/13 06:04:54;;;;;;;61.25;55.83;;;;;;;;;;5071629;28;20103;-61
2023/03/13 06:07:20;;;;;;;60.83;55.53;;;;;;;;;;5072068;28;20556;-61
2023/03/13 06:09:46;;;;;;;63.65;58.08;;;;;;;;;;5062316;28;20040;-62
2023/03/13 06:12:12;;;;;;;64.35;58.75;;;;;;;;;;5071968;28;20016;-62
2023/03/13 06:14:38;;;;;;;65.55;59.85;;;;;;;;;;5071368;28;20023;-62
2023/03/13 06:17:04;;;;;;;64.80;59.00;;;;;;;;;;5064249;28;20028;-63
2023/03/13 06:19:31;;;;;;;67.68;61.42;;;;;;;;;;5053288;28;20082;-62
2023/03/13 06:21:56;;;;;;;66.18;60.35;;;;;;;;;;5071942;28;20035;-61
2023/03/13 06:24:24;;;;;;;70.43;63.95;;;;;;;;;;5071152;28;20481;-60
2023/03/13 06:26:50;;;;;;;65.68;59.50;;;;;;;;;;5068304;28;20044;-61
2023/03/13 06:29:17;;;;;;;63.75;58.00;;;;;;;;;;5071326;28;20074;-61
2023/03/13 06:31:43;;;;;;;60.75;55.22;;;;;;;;;;5087517;22;20545;-55
2023/03/13 06:34:12;;;;;;;61.13;55.47;;;;;;;;;;5054038;28;20042;-56
2023/03/13 06:36:39;;;;;;;57.88;52.67;;;;;;;;;;5054396;28;20028;-56
2023/03/13 06:39:05;;;;;;;58.60;53.00;;;;;;;;;;5072432;28;20459;-56
2023/03/13 06:41:32;;;;;;;55.30;49.28;;;;;;;;;;5072178;28;20033;-53
2023/03/13 06:43:58;;;;;;;55.83;50.85;;;;;;;;;;5053989;28;20028;-53
2023/03/13 06:46:24;;;;;;;52.85;48.30;;;;;;;;;;5072186;28;20032;-56
2023/03/13 06:48:51;;;;;;;52.03;47.33;;;;;;;;;;5054099;28;20107;-55
2023/03/13 06:51:18;;;;;;;52.40;47.72;;;;;;;;;;5072110;28;20446;-56
2023/03/13 06:53:48;;;;;;;54.47;49.47;;;;;;;;;;5072346;28;20036;-58
2023/03/13 06:56:14;;;;;;;51.47;46.85;;;;;;;;;;5054315;28;20081;-56
2023/03/13 06:58:40;;;;;;;53.92;49.20;;;;;;;;;;5054288;28;20124;-54
2023/03/13 07:01:07;;;;;;;51.67;47.13;;;;;;;;;;5071623;28;20111;-56
2023/03/13 07:03:33;;;;;;;53.97;49.35;;;;;;;;;;5071495;28;20058;-62
2023/03/13 07:05:59;;;;;;;47.88;43.83;;;;;;;;;;5071781;28;20182;-55
2023/03/13 07:08:26;;;;;;;48.97;44.88;;;;;;;;;;5071779;28;20407;-50
2023/03/13 07:10:53;;;;;;;48.65;44.47;;;;;;;;;;5071833;28;20107;-50
2023/03/13 07:13:20;;;;;;;47.35;43.35;;;;;;;;;;5071817;28;20166;-59
2023/03/13 07:15:47;;;;;;;48.03;44.10;;;;;;;;;;5072444;28;20433;-55
2023/03/13 07:18:13;;;;;;;43.20;39.75;;;;;;;;;;5072285;28;20016;-51
2023/03/13 07:20:39;;;;;;;41.55;38.05;;;;;;;;;;5071864;28;20031;-58
2023/03/13 07:23:05;;;;;;;41.30;38.00;;;;;;;;;;5071693;28;20097;-52
2023/03/13 07:25:31;;;;;;;42.10;38.45;;;;;;;;;;5071973;28;20056;-52
2023/03/13 07:27:59;;;;;;;39.97;36.83;;;;;;;;;;5053697;28;20025;-58
2023/03/13 07:30:25;;;;;;;40.45;37.25;;;;;;;;;;5071377;28;20037;-54
2023/03/13 07:32:51;;;;;;;38.92;35.50;;;;;;;;;;5072067;28;20066;-59
2023/03/13 07:35:17;;;;;;;38.47;34.88;;;;;;;;;;5071617;28;20021;-55
2023/03/13 07:37:43;;;;;;;36.45;33.22;;;;;;;;;;5071452;28;20031;-57
2023/03/13 07:40:10;;;;;;;33.58;30.67;;;;;;;;;;5071307;28;20056;-56
2023/03/13 07:42:36;;;;;;;31.52;28.73;;;;;;;;;;5053500;28;20029;-52
2023/03/13 07:45:02;;;;;;;28.98;26.17;;;;;;;;;;5071382;28;20039;-57
2023/03/13 07:47:28;;;;;;;29.20;26.55;;;;;;;;;;5072096;28;20107;-54
2023/03/13 07:49:54;;;;;;;28.50;25.67;;;;;;;;;;5071090;28;20112;-57
2023/03/13 07:52:21;;;;;;;28.40;25.58;;;;;;;;;;5053262;28;20174;-59
2023/03/13 07:54:47;;;;;;;26.77;24.20;;;;;;;;;;5052857;28;20021;-58
2023/03/13 07:57:13;;;;;;;26.90;24.23;;;;;;;;;;5052839;28;20472;-61
2023/03/13 07:59:39;;;;;;;27.67;24.98;;;;;;;;;;5053354;28;20048;-60
2023/03/13 08:02:06;;;;;;;27.67;25.02;;;;;;;;;;5070917;28;20491;-62
2023/03/13 08:04:32;;;;;;;27.10;24.60;;;;;;;;;;5052814;28;20036;-58
2023/03/13 08:06:58;;;;;;;24.92;22.45;;;;;;;;;;5071022;28;20028;-58
2023/03/13 08:09:24;;;;;;;28.33;22.38;;;;;;;;;;5070867;28;20024;-59
2023/03/13 08:11:50;;;;;;;24.60;22.20;;;;;;;;;;5053118;28;20467;-60
2023/03/13 08:14:16;;;;;;;24.75;22.45;;;;;;;;;;5069639;28;20096;-65
2023/03/13 08:16:42;;;;;;;24.25;21.73;;;;;;;;;;5070695;28;20021;-62
2023/03/13 08:19:09;;;;;;;23.60;21.10;;;;;;;;;;5061107;28;20025;-63
2023/03/13 08:21:36;;;;;;;22.40;20.15;;;;;;;;;;5070796;28;20039;-60
2023/03/13 08:24:05;;;;;;;24.25;21.85;;;;;;;;;;5064996;28;20080;-64
2023/03/13 08:26:32;;;;;;;23.58;21.17;;;;;;;;;;5068199;28;20024;-53
2023/03/13 08:28:59;;;;;;;23.80;21.15;;;;;;;;;;5070826;28;20034;-67
2023/03/13 08:31:27;;;;;;;24.02;19.75;;;;;;;;;;5069501;28;20021;-61
2023/03/13 08:33:53;;;;;;;22.42;20.02;;;;;;;;;;5070719;28;20097;-62
2023/03/13 08:36:22;;;;;;;22.95;20.55;;;;;;;;;;5070868;28;20024;-62
2023/03/13 08:38:48;;;;;;;21.58;19.33;;;;;;;;;;5069542;28;20063;-56
2023/03/13 08:41:15;;;;;;;22.13;19.80;;;;;;;;;;5069078;28;20020;-60
2023/03/13 08:43:45;;;;;;;23.13;20.40;;;;;;;;;;5072471;28;20032;-60
2023/03/13 08:46:11;;;;;;;22.75;20.42;;;;;;;;;;5074459;28;20031;-61
2023/03/13 08:48:37;;;;;;;23.05;19.13;;;;;;;;;;5056655;28;20033;-63
2023/03/13 08:51:04;;;;;;;22.58;18.77;;;;;;;;;;5074598;28;20082;-58
2023/03/13 08:53:31;;;;;;;21.75;19.45;;;;;;;;;;5074207;28;20048;-60
2023/03/13 08:55:57;;;;;;;21.75;19.55;;;;;;;;;;5056899;28;20021;-61
2023/03/13 08:58:23;;;;;;;23.23;20.30;;;;;;;;;;5071424;28;20075;-61
2023/03/13 09:00:49;;;;;;;21.67;19.48;;;;;;;;;;5063731;28;20025;-61
2023/03/13 09:03:16;;;;;;;21.58;19.38;;;;;;;;;;5072494;28;20063;-62
2023/03/13 09:05:42;;;;;;;22.23;19.92;;;;;;;;;;5054431;28;20025;-63
2023/03/13 09:08:09;;;;;;;23.38;20.88;;;;;;;;;;5073871;28;20025;-60
2023/03/13 09:10:35;;;;;;;22.85;20.15;;;;;;;;;;5074003;28;20039;-57
2023/03/13 09:13:02;;;;;;;22.65;19.70;;;;;;;;;;5074000;28;20504;-64
2023/03/13 09:15:28;;;;;;;21.90;19.70;;;;;;;;;;5055944;28;20028;-66
2023/03/13 09:17:54;;;;;;;21.60;19.40;;;;;;;;;;5055974;28;20028;-66
2023/03/13 09:20:20;;;;;;;20.70;18.15;;;;;;;;;;5072398;28;20657;-66
2023/03/13 09:22:46;;;;;;;19.85;17.75;;;;;;;;;;5072888;28;20050;-66
2023/03/13 09:25:13;;;;;;;19.58;16.70;;;;;;;;;;5073364;28;20024;-65
2023/03/13 09:27:39;;;;;;;18.35;15.77;;;;;;;;;;5074274;28;20059;-66
2023/03/13 09:30:06;;;;;;;18.83;15.10;;;;;;;;;;5056373;28;20031;-67
2023/03/13 09:32:32;;;;;;;22.20;17.10;;;;;;;;;;5074927;28;20036;-64
2023/03/13 09:34:58;;;;;;;21.65;15.70;;;;;;;;;;5074700;28;20422;-65
2023/03/13 09:37:24;;;;;;;21.65;17.05;;;;;;;;;;5056956;28;20028;-64
2023/03/13 09:39:50;;;;;;;20.55;15.65;;;;;;;;;;5074654;28;20024;-67
2023/03/13 09:42:20;;;;;;;17.60;14.90;;;;;;;;;;5056532;28;20021;-65
2023/03/13 09:44:53;;;;;;;21.25;14.90;;;;;;;;;;5056275;28;20052;-65
2023/03/13 09:47:23;;;;;;;20.15;15.75;;;;;;;;;;5074706;28;20032;-66
2023/03/13 09:49:53;;;;;;;19.00;14.27;;;;;;;;;;5074539;28;20024;-64
2023/03/13 09:52:22;;;;;;;19.30;14.50;;;;;;;;;;5056960;28;20519;-65
2023/03/13 09:55:04;;;;;;;18.92;14.40;;;;;;;;;;5074026;28;20025;-66
2023/03/13 09:57:31;;;;;;;18.20;13.82;;;;;;;;;;5074699;28;20028;-66
2023/03/13 09:59:56;;;;;;;19.60;13.20;;;;;;;;;;5074660;28;20025;-65
2023/03/13 10:02:25;;;;;;;18.52;13.50;;;;;;;;;;5074282;28;20362;-64
2023/03/13 10:04:55;;;;;;;16.02;12.63;;;;;;;;;;5074804;28;20021;-66
2023/03/13 10:07:21;;;;;;;17.35;12.90;;;;;;;;;;5077546;28;20039;-66
2023/03/13 10:09:47;;;;;;;20.00;14.32;;;;;;;;;;5059051;28;20031;-67
2023/03/13 10:12:26;;;;;;;17.63;12.85;;;;;;;;;;5056027;28;20020;-65
2023/03/13 10:14:52;;;;;;;;;;;;;;;;;;5060806;28;20033;-66
2023/03/13 10:17:38;;;;;;;18.25;13.00;;;;;;;;;;5074159;28;19912;-66
2023/03/13 10:20:17;;;;;;;18.83;13.27;;;;;;;;;;5074802;28;20472;-67
2023/03/13 10:22:48;;;;;;;19.08;12.73;;;;;;;;;;5055695;28;20123;-67
2023/03/13 10:25:28;;;;;;;19.02;13.27;;;;;;;;;;5055883;28;20021;-66
2023/03/13 10:27:54;;;;;;;19.95;13.23;;;;;;;;;;5074981;28;20029;-66
2023/03/13 10:30:20;;;;;;;17.90;12.77;;;;;;;;;;5056572;28;20381;-64
2023/03/13 10:32:46;;;;;;;17.77;13.50;;;;;;;;;;5056223;28;20339;-65
2023/03/13 10:35:20;;;;;;;18.90;12.18;;;;;;;;;;5073554;28;20115;-65
2023/03/13 10:37:46;;;;;;;17.58;12.30;;;;;;;;;;5073627;28;20033;-66
2023/03/13 10:40:22;;;;;;;17.13;12.23;;;;;;;;;;5055206;28;20070;-68
2023/03/13 10:42:50;;;;;;;17.50;12.73;;;;;;;;;;5073583;28;20118;-64
2023/03/13 10:45:17;;;;;;;18.95;13.23;;;;;;;;;;5054231;28;20024;-67
2023/03/13 10:47:43;;;;;;;17.60;12.32;;;;;;;;;;5054321;28;20042;-67
2023/03/13 10:50:17;;;;;;;18.50;12.23;;;;;;;;;;5067786;28;20099;-67
2023/03/13 10:52:45;;;;;;;18.30;12.00;;;;;;;;;;5054890;28;20025;-67
2023/03/13 10:55:21;;;;;;;19.93;12.57;;;;;;;;;;5056215;28;20028;-66
2023/03/13 10:58:05;;;;;;;17.42;11.80;;;;;;;;;;5074173;28;20270;-67
2023/03/13 11:00:36;;;;;;;17.27;11.60;;;;;;;;;;5073920;28;20096;-66
2023/03/13 11:03:05;;;;;;;16.60;12.20;;;;;;;;;;5073927;28;20032;-65
2023/03/13 11:05:33;;;;;;;16.35;12.07;;;;;;;;;;5054062;28;20025;-65
2023/03/13 11:08:10;;;;;;;21.33;12.07;;;;;;;;;;5072587;28;20032;-62
2023/03/13 11:10:36;;;;;;;16.00;12.32;;;;;;;;;;5061758;28;20025;-63
2023/03/13 11:13:02;;;;;;;16.15;11.82;;;;;;;;;;5062891;28;20032;-62
2023/03/13 11:15:58;;;;;;;18.55;12.63;;;;;;;;;;5072243;28;20024;-64
2023/03/13 11:18:44;;;;;;;16.65;12.32;;;;;;;;;;4700331;28;10000073;-66
2023/03/13 11:21:16;;;;;;;17.45;12.70;;;;;;;;;;5052979;28;20025;-64
2023/03/13 11:23:45;;;;;;;16.52;12.32;;;;;;;;;;5061727;28;20016;-65
2023/03/13 11:26:23;;;;;;;18.67;12.60;;;;;;;;;;5073569;28;20481;-65
2023/03/13 11:29:06;;;;;;;20.30;11.70;;;;;;;;;;5039075;28;20013;-62
2023/03/13 11:31:44;;;;;;;15.50;11.35;;;;;;;;;;5032428;28;20048;-62
2023/03/13 11:34:25;;;;;;;16.35;11.90;;;;;;;;;;5032279;28;20443;-64
2023/03/13 11:37:01;;;;;;;21.27;12.32;;;;;;;;;;5061846;28;20021;-64
2023/03/13 11:39:46;;;;;;;17.13;12.07;;;;;;;;;;5064598;28;20488;-64
2023/03/13 11:42:11;;;;;;;16.05;10.90;;;;;;;;;;5049408;28;20031;-64
2023/03/13 11:44:53;;;;;;;16.88;11.20;;;;;;;;;;5048698;28;20119;-64
2023/03/13 11:47:25;;;;;;;16.08;12.18;;;;;;;;;;5052235;28;20131;-64
2023/03/13 11:49:55;;;;;;;16.02;11.40;;;;;;;;;;5069790;28;20430;-65
2023/03/13 11:52:32;;;;;;;18.05;12.45;;;;;;;;;;5069939;28;20036;-64
2023/03/13 11:55:16;;;;;;;18.10;11.55;;;;;;;;;;5049414;28;20021;-65
2023/03/13 11:58:01;;;;;;;17.33;12.27;;;;;;;;;;5049889;28;20025;-65
2023/03/13 12:00:30;;;;;;;18.30;12.65;;;;;;;;;;5048635;28;20485;-66
2023/03/13 12:03:05;;;;;;;16.30;11.60;;;;;;;;;;5048946;28;20032;-68
2023/03/13 12:05:51;;;;;;;15.40;11.02;;;;;;;;;;5049888;28;20056;-65
2023/03/13 12:08:27;;;;;;;16.60;11.95;;;;;;;;;;5050588;28;20035;-67
2023/03/13 12:11:04;;;;;;;17.67;11.95;;;;;;;;;;5049141;28;20117;-65
2023/03/13 12:13:37;;;;;;;18.02;11.13;;;;;;;;;;5051042;28;20048;-65
2023/03/13 12:16:07;;;;;;;15.07;11.07;;;;;;;;;;5051561;28;20441;-65
2023/03/13 12:18:37;;;;;;;16.50;11.48;;;;;;;;;;5049507;28;20525;-63
2023/03/13 12:21:06;;;;;;;17.50;11.35;;;;;;;;;;5061902;28;20016;-65
2023/03/13 12:23:39;;;;;;;19.60;12.23;;;;;;;;;;5052800;28;20017;-65
2023/03/13 12:26:21;;;;;;;16.02;11.43;;;;;;;;;;5070978;28;20024;-66
2023/03/13 12:29:06;;;;;;;15.60;10.82;;;;;;;;;;5070760;28;20028;-65
2023/03/13 12:31:41;;;;;;;17.00;11.25;;;;;;;;;;5063346;22;20417;-57
2023/03/13 12:34:27;;;;;;;16.13;11.18;;;;;;;;;;5048553;28;20119;-60
2023/03/13 12:37:17;;;;;;;15.95;10.95;;;;;;;;;;5049665;28;20021;-59
2023/03/13 12:40:06;;;;;;;15.10;11.10;;;;;;;;;;5049518;28;20029;-61
2023/03/13 12:42:50;;;;;;;16.88;10.70;;;;;;;;;;5048973;28;20021;-61
2023/03/13 12:45:18;;;;;;;18.30;10.77;;;;;;;;;;5029557;28;20073;-62
2023/03/13 12:48:03;;;;;;;17.08;10.63;;;;;;;;;;5028055;28;20036;-62
2023/03/13 12:50:38;;;;;;;15.60;10.70;;;;;;;;;;5043339;28;20036;-64
2023/03/13 12:53:13;;;;;;;15.02;11.00;;;;;;;;;;4896697;28;10001351;-61
2023/03/13 12:55:44;;;;;;;15.20;11.45;;;;;;;;;;5042947;28;20232;-62
2023/03/13 12:58:13;;;;;;;15.95;11.60;;;;;;;;;;5039424;28;20481;-64
2023/03/13 13:00:41;;;;;;;15.75;11.20;;;;;;;;;;5044556;28;20029;-63
2023/03/13 13:03:16;;;;;;;15.15;11.07;;;;;;;;;;5044045;28;20106;-64
2023/03/13 13:06:01;;;;;;;15.68;11.30;;;;;;;;;;5043909;28;20048;-59
2023/03/13 13:08:37;;;;;;;14.88;11.00;;;;;;;;;;5036371;28;20025;-63
2023/03/13 13:11:22;;;;;;;15.65;11.35;;;;;;;;;;5046410;28;20025;-61
2023/03/13 13:13:48;;;;;;;15.20;11.57;;;;;;;;;;5046165;28;20021;-62
2023/03/13 13:16:18;;;;;;;15.32;11.52;;;;;;;;;;5044854;28;20116;-65
2023/03/13 13:18:44;;;;;;;16.15;11.10;;;;;;;;;;5046544;28;20032;-59
2023/03/13 13:21:17;;;;;;;15.63;11.00;;;;;;;;;;5045418;28;20061;-60
2023/03/13 13:23:48;;;;;;;15.23;11.40;;;;;;;;;;5035268;28;20044;-63
2023/03/13 13:26:32;;;;;;;16.75;10.88;;;;;;;;;;5029065;28;20029;-64
2023/03/13 13:29:18;;;;;;;15.38;10.90;;;;;;;;;;5027225;28;20420;-61
2023/03/13 13:31:44;;;;;;;15.45;11.07;;;;;;;;;;5042797;28;20094;-60
2023/03/13 13:34:33;;;;;;;16.13;11.98;;;;;;;;;;5049482;28;20449;-63
2023/03/13 13:37:11;;;;;;;16.77;11.52;;;;;;;;;;5051580;28;20029;-63
2023/03/13 13:39:37;;;;;;;16.35;11.00;;;;;;;;;;5052786;28;20064;-58
2023/03/13 13:42:22;;;;;;;16.73;11.38;;;;;;;;;;5052996;28;20515;-55
2023/03/13 13:44:58;;;;;;;14.77;10.70;;;;;;;;;;5052719;28;20033;-55
2023/03/13 13:47:26;;;;;;;17.52;11.07;;;;;;;;;;5052800;28;20058;-57
2023/03/13 13:49:53;;;;;;;15.35;11.60;;;;;;;;;;5052730;28;20021;-61
2023/03/13 13:52:30;;;;;;;15.70;11.30;;;;;;;;;;5052642;28;20120;-54
2023/03/13 13:54:57;;;;;;;15.30;11.60;;;;;;;;;;5044115;28;20390;-60
2023/03/13 13:57:30;;;;;;;14.73;10.75;;;;;;;;;;5032139;28;20052;-61
2023/03/13 14:00:05;;;;;;;14.93;11.00;;;;;;;;;;5032442;28;20105;-58
2023/03/13 14:02:35;;;;;;;16.65;11.30;;;;;;;;;;5032269;28;20022;-58
2023/03/13 14:05:03;;;;;;;14.90;10.88;;;;;;;;;;5032217;28;20393;-60
2023/03/13 14:07:38;;;;;;;21.25;11.45;;;;;;;;;;5032206;28;20025;-61
2023/03/13 14:10:14;;;;;;;17.02;11.35;;;;;;;;;;5031942;28;20030;-62
2023/03/13 14:12:40;;;;;;;16.40;11.20;;;;;;;;;;5031674;28;20049;-61
2023/03/13 14:15:14;;;;;;;15.82;11.10;;;;;;;;;;5031838;28;20378;-58
2023/03/13 14:17:45;;;;;;;14.75;10.65;;;;;;;;;;5032034;28;20028;-61
2023/03/13 14:20:17;;;;;;;15.23;10.82;;;;;;;;;;5031944;28;20053;-57
2023/03/13 14:22:47;;;;;;;15.63;10.52;;;;;;;;;;5047252;28;20504;-62
2023/03/13 14:25:13;;;;;;;16.13;10.80;;;;;;;;;;5051874;28;20029;-65